sensor_id;sensor_type;location;lat;lon;timestamp;P1;durP1;ratioP1;P2;durP2;ratioP2
51467;SDS011;37545;45.302;-122.946;2024-02-21T00:00:50;1.02;;;0.60;;
51467;SDS011;37545;45.302;-122.946;2024-02-21T00:03:27;2.90;;;1.17;;
51467;SDS011;37545;45.302;-122.946;2024-02-21T00:05:56;4.68;;;0.73;;
51467;SDS011;37545;45.302;-122.946;2024-02-21T00:08:26;1.27;;;0.68;;
51467;SDS011;37545;45.302;-122.946;2024-02-21T00:10:54;1.15;;;0.55;;
51467;SDS011;37545;45.302;-122.946;2024-02-21T00:13:36;1.20;;;0.68;;
51467;SDS011;37545;45.302;-122.946;2024-02-21T00:16:06;1.10;;;0.57;;
51467;SDS011;37545;45.302;-122.946;2024-02-21T00:18:39;2.72;;;0.70;;
51467;SDS011;37545;45.302;-122.946;2024-02-21T00:21:09;0.80;;;0.60;;
51467;SDS011;37545;45.302;-122.946;2024-02-21T00:23:43;1.33;;;0.60;;
51467;SDS011;37545;45.302;-122.946;2024-02-21T00:26:13;1.92;;;0.85;;
51467;SDS011;37545;45.302;-122.946;2024-02-21T00:28:54;1.08;;;0.80;;
51467;SDS011;37545;45.302;-122.946;2024-02-21T00:31:23;2.00;;;1.10;;
51467;SDS011;37545;45.302;-122.946;2024-02-21T00:33:51;2.47;;;0.70;;
51467;SDS011;37545;45.302;-122.946;2024-02-21T00:36:20;1.48;;;0.68;;
51467;SDS011;37545;45.302;-122.946;2024-02-21T00:38:55;2.00;;;0.90;;
51467;SDS011;37545;45.302;-122.946;2024-02-21T00:41:24;0.80;;;0.55;;
51467;SDS011;37545;45.302;-122.946;2024-02-21T00:43:55;2.70;;;1.10;;
51467;SDS011;37545;45.302;-122.946;2024-02-21T00:46:31;1.40;;;0.85;;
51467;SDS011;37545;45.302;-122.946;2024-02-21T00:49:01;1.73;;;0.90;;
51467;SDS011;37545;45.302;-122.946;2024-02-21T00:51:31;2.30;;;1.08;;
51467;SDS011;37545;45.302;-122.946;2024-02-21T00:53:59;1.80;;;0.90;;
51467;SDS011;37545;45.302;-122.946;2024-02-21T00:56:35;2.08;;;0.90;;
51467;SDS011;37545;45.302;-122.946;2024-02-21T00:59:06;1.83;;;1.00;;
51467;SDS011;37545;45.302;-122.946;2024-02-21T01:01:35;1.70;;;0.80;;
51467;SDS011;37545;45.302;-122.946;2024-02-21T01:04:07;3.57;;;1.00;;
51467;SDS011;37545;45.302;-122.946;2024-02-21T01:06:41;1.85;;;0.70;;
51467;SDS011;37545;45.302;-122.946;2024-02-21T01:09:10;4.35;;;0.73;;
51467;SDS011;37545;45.302;-122.946;2024-02-21T01:11:40;0.70;;;0.60;;
51467;SDS011;37545;45.302;-122.946;2024-02-21T01:14:17;2.40;;;0.52;;
51467;SDS011;37545;45.302;-122.946;2024-02-21T01:16:46;0.95;;;0.55;;
51467;SDS011;37545;45.302;-122.946;2024-02-21T01:19:15;4.90;;;1.63;;
51467;SDS011;37545;45.302;-122.946;2024-02-21T01:21:43;1.30;;;0.75;;
51467;SDS011;37545;45.302;-122.946;2024-02-21T01:24:15;2.75;;;1.02;;
51467;SDS011;37545;45.302;-122.946;2024-02-21T01:26:43;1.83;;;0.60;;
51467;SDS011;37545;45.302;-122.946;2024-02-21T01:29:14;0.55;;;0.50;;
51467;SDS011;37545;45.302;-122.946;2024-02-21T01:31:43;0.52;;;0.43;;
51467;SDS011;37545;45.302;-122.946;2024-02-21T01:34:11;1.02;;;0.55;;
51467;SDS011;37545;45.302;-122.946;2024-02-21T01:36:41;3.50;;;0.80;;
51467;SDS011;37545;45.302;-122.946;2024-02-21T01:39:10;0.88;;;0.63;;
51467;SDS011;37545;45.302;-122.946;2024-02-21T01:41:39;1.95;;;0.55;;
51467;SDS011;37545;45.302;-122.946;2024-02-21T01:44:08;2.97;;;1.00;;
51467;SDS011;37545;45.302;-122.946;2024-02-21T01:51:49;4.72;;;2.35;;
51467;SDS011;37545;45.302;-122.946;2024-02-21T01:54:24;6.07;;;4.55;;
51467;SDS011;37545;45.302;-122.946;2024-02-21T01:56:55;9.55;;;6.95;;
51467;SDS011;37545;45.302;-122.946;2024-02-21T01:59:28;10.15;;;7.35;;
51467;SDS011;37545;45.302;-122.946;2024-02-21T02:02:07;9.45;;;6.68;;
51467;SDS011;37545;45.302;-122.946;2024-02-21T02:04:37;10.02;;;5.68;;
51467;SDS011;37545;45.302;-122.946;2024-02-21T02:07:12;9.07;;;6.32;;
51467;SDS011;37545;45.302;-122.946;2024-02-21T02:09:51;10.50;;;5.13;;
51467;SDS011;37545;45.302;-122.946;2024-02-21T02:12:23;8.85;;;4.05;;
51467;SDS011;37545;45.302;-122.946;2024-02-21T02:15:08;7.70;;;3.45;;
51467;SDS011;37545;45.302;-122.946;2024-02-21T02:17:37;3.88;;;2.53;;
51467;SDS011;37545;45.302;-122.946;2024-02-21T02:20:06;8.10;;;3.33;;
51467;SDS011;37545;45.302;-122.946;2024-02-21T03:00:01;5.30;;;3.85;;
51467;SDS011;37545;45.302;-122.946;2024-02-21T03:02:32;6.90;;;3.70;;
51467;SDS011;37545;45.302;-122.946;2024-02-21T03:05:01;6.18;;;3.92;;
51467;SDS011;37545;45.302;-122.946;2024-02-21T03:07:41;8.10;;;4.10;;
51467;SDS011;37545;45.302;-122.946;2024-02-21T03:10:11;2.38;;;1.77;;
51467;SDS011;37545;45.302;-122.946;2024-02-21T03:12:43;3.75;;;1.50;;
51467;SDS011;37545;45.302;-122.946;2024-02-21T03:15:22;1.80;;;1.08;;
51467;SDS011;37545;45.302;-122.946;2024-02-21T03:17:54;2.28;;;0.90;;
51467;SDS011;37545;45.302;-122.946;2024-02-21T03:20:23;1.65;;;1.15;;
51467;SDS011;37545;45.302;-122.946;2024-02-21T03:23:00;2.30;;;1.08;;
51467;SDS011;37545;45.302;-122.946;2024-02-21T03:25:29;1.38;;;1.00;;
51467;SDS011;37545;45.302;-122.946;2024-02-21T03:27:58;1.88;;;0.90;;
51467;SDS011;37545;45.302;-122.946;2024-02-21T03:30:32;1.45;;;1.17;;
51467;SDS011;37545;45.302;-122.946;2024-02-21T03:33:04;3.33;;;1.05;;
51467;SDS011;37545;45.302;-122.946;2024-02-21T03:35:33;1.92;;;1.00;;
51467;SDS011;37545;45.302;-122.946;2024-02-21T03:38:02;2.42;;;1.05;;
51467;SDS011;37545;45.302;-122.946;2024-02-21T03:40:35;0.70;;;0.60;;
51467;SDS011;37545;45.302;-122.946;2024-02-21T03:43:08;1.02;;;0.90;;
51467;SDS011;37545;45.302;-122.946;2024-02-21T03:45:39;0.95;;;0.70;;
51467;SDS011;37545;45.302;-122.946;2024-02-21T03:48:08;1.52;;;1.08;;
51467;SDS011;37545;45.302;-122.946;2024-02-21T03:50:43;2.20;;;1.00;;
51467;SDS011;37545;45.302;-122.946;2024-02-21T03:53:13;2.30;;;1.38;;
51467;SDS011;37545;45.302;-122.946;2024-02-21T03:55:42;5.35;;;2.35;;
51467;SDS011;37545;45.302;-122.946;2024-02-21T03:58:11;6.97;;;2.15;;
51467;SDS011;37545;45.302;-122.946;2024-02-21T04:00:47;4.90;;;2.42;;
51467;SDS011;37545;45.302;-122.946;2024-02-21T04:03:17;3.53;;;1.98;;
51467;SDS011;37545;45.302;-122.946;2024-02-21T04:08:20;5.13;;;2.05;;
51467;SDS011;37545;45.302;-122.946;2024-02-21T04:10:53;3.13;;;1.75;;
51467;SDS011;37545;45.302;-122.946;2024-02-21T04:13:22;1.92;;;1.58;;
51467;SDS011;37545;45.302;-122.946;2024-02-21T04:15:53;1.92;;;1.52;;
51467;SDS011;37545;45.302;-122.946;2024-02-21T04:18:25;3.38;;;1.40;;
51467;SDS011;37545;45.302;-122.946;2024-02-21T04:20:54;2.47;;;1.75;;
51467;SDS011;37545;45.302;-122.946;2024-02-21T04:23:23;4.07;;;1.50;;
51467;SDS011;37545;45.302;-122.946;2024-02-21T04:25:55;2.95;;;1.70;;
51467;SDS011;37545;45.302;-122.946;2024-02-21T04:28:27;2.88;;;1.70;;
51467;SDS011;37545;45.302;-122.946;2024-02-21T04:30:59;2.70;;;1.90;;
51467;SDS011;37545;45.302;-122.946;2024-02-21T04:33:43;2.83;;;2.10;;
51467;SDS011;37545;45.302;-122.946;2024-02-21T04:36:20;5.82;;;1.73;;
51467;SDS011;37545;45.302;-122.946;2024-02-21T04:38:49;2.42;;;1.80;;
51467;SDS011;37545;45.302;-122.946;2024-02-21T04:41:21;3.30;;;2.13;;
51467;SDS011;37545;45.302;-122.946;2024-02-21T04:43:55;3.08;;;1.83;;
51467;SDS011;37545;45.302;-122.946;2024-02-21T04:46:28;10.63;;;2.25;;
51467;SDS011;37545;45.302;-122.946;2024-02-21T04:48:57;3.67;;;2.10;;
51467;SDS011;37545;45.302;-122.946;2024-02-21T04:51:28;3.95;;;1.80;;
51467;SDS011;37545;45.302;-122.946;2024-02-21T04:54:00;5.00;;;2.10;;
51467;SDS011;37545;45.302;-122.946;2024-02-21T04:56:29;3.78;;;2.17;;
51467;SDS011;37545;45.302;-122.946;2024-02-21T04:58:58;5.03;;;2.17;;
51467;SDS011;37545;45.302;-122.946;2024-02-21T05:01:30;3.00;;;1.85;;
51467;SDS011;37545;45.302;-122.946;2024-02-21T05:03:59;8.15;;;2.35;;
51467;SDS011;37545;45.302;-122.946;2024-02-21T05:06:29;8.02;;;2.45;;
51467;SDS011;37545;45.302;-122.946;2024-02-21T05:08:58;5.45;;;2.20;;
51467;SDS011;37545;45.302;-122.946;2024-02-21T05:11:29;6.30;;;2.28;;
51467;SDS011;37545;45.302;-122.946;2024-02-21T05:14:00;3.08;;;1.75;;
51467;SDS011;37545;45.302;-122.946;2024-02-21T05:16:31;3.15;;;1.73;;
51467;SDS011;37545;45.302;-122.946;2024-02-21T05:19:00;6.10;;;2.03;;
51467;SDS011;37545;45.302;-122.946;2024-02-21T05:21:30;7.40;;;2.33;;
51467;SDS011;37545;45.302;-122.946;2024-02-21T05:23:58;2.75;;;1.25;;
51467;SDS011;37545;45.302;-122.946;2024-02-21T05:26:27;2.45;;;1.23;;
51467;SDS011;37545;45.302;-122.946;2024-02-21T05:28:56;3.38;;;1.63;;
51467;SDS011;37545;45.302;-122.946;2024-02-21T05:31:26;2.85;;;1.60;;
51467;SDS011;37545;45.302;-122.946;2024-02-21T05:34:11;3.60;;;1.42;;
51467;SDS011;37545;45.302;-122.946;2024-02-21T05:36:40;3.40;;;1.58;;
51467;SDS011;37545;45.302;-122.946;2024-02-21T05:39:08;2.92;;;1.92;;
51467;SDS011;37545;45.302;-122.946;2024-02-21T05:41:40;8.13;;;2.30;;
51467;SDS011;37545;45.302;-122.946;2024-02-21T05:44:08;2.38;;;1.50;;
51467;SDS011;37545;45.302;-122.946;2024-02-21T05:46:37;5.82;;;1.75;;
51467;SDS011;37545;45.302;-122.946;2024-02-21T05:49:06;3.22;;;1.60;;
51467;SDS011;37545;45.302;-122.946;2024-02-21T05:51:36;3.38;;;1.70;;
51467;SDS011;37545;45.302;-122.946;2024-02-21T05:54:06;3.50;;;1.63;;
51467;SDS011;37545;45.302;-122.946;2024-02-21T05:56:35;3.75;;;2.08;;
51467;SDS011;37545;45.302;-122.946;2024-02-21T05:59:04;3.72;;;1.77;;
51467;SDS011;37545;45.302;-122.946;2024-02-21T06:01:32;2.45;;;1.35;;
51467;SDS011;37545;45.302;-122.946;2024-02-21T06:04:02;4.60;;;1.75;;
51467;SDS011;37545;45.302;-122.946;2024-02-21T06:06:34;2.60;;;1.57;;
51467;SDS011;37545;45.302;-122.946;2024-02-21T06:09:04;2.80;;;2.03;;
51467;SDS011;37545;45.302;-122.946;2024-02-21T06:11:33;3.05;;;1.63;;
51467;SDS011;37545;45.302;-122.946;2024-02-21T06:14:03;3.25;;;1.70;;
51467;SDS011;37545;45.302;-122.946;2024-02-21T06:16:32;2.75;;;1.58;;
51467;SDS011;37545;45.302;-122.946;2024-02-21T06:19:00;2.35;;;1.42;;
51467;SDS011;37545;45.302;-122.946;2024-02-21T06:21:29;1.75;;;1.15;;
51467;SDS011;37545;45.302;-122.946;2024-02-21T06:24:00;3.47;;;1.58;;
51467;SDS011;37545;45.302;-122.946;2024-02-21T06:26:28;3.40;;;1.95;;
51467;SDS011;37545;45.302;-122.946;2024-02-21T06:28:57;3.25;;;1.42;;
51467;SDS011;37545;45.302;-122.946;2024-02-21T06:31:27;5.10;;;0.98;;
51467;SDS011;37545;45.302;-122.946;2024-02-21T06:33:57;4.80;;;1.30;;
51467;SDS011;37545;45.302;-122.946;2024-02-21T06:36:26;2.22;;;1.35;;
51467;SDS011;37545;45.302;-122.946;2024-02-21T06:38:54;4.05;;;1.52;;
51467;SDS011;37545;45.302;-122.946;2024-02-21T06:41:27;3.25;;;1.15;;
51467;SDS011;37545;45.302;-122.946;2024-02-21T06:43:58;1.33;;;1.00;;
51467;SDS011;37545;45.302;-122.946;2024-02-21T06:46:26;2.00;;;1.00;;
51467;SDS011;37545;45.302;-122.946;2024-02-21T06:48:56;1.73;;;1.00;;
51467;SDS011;37545;45.302;-122.946;2024-02-21T06:51:29;1.85;;;1.20;;
51467;SDS011;37545;45.302;-122.946;2024-02-21T06:53:57;1.60;;;1.10;;
51467;SDS011;37545;45.302;-122.946;2024-02-21T06:56:28;1.73;;;1.35;;
51467;SDS011;37545;45.302;-122.946;2024-02-21T06:58:58;2.33;;;1.30;;
51467;SDS011;37545;45.302;-122.946;2024-02-21T07:01:29;3.65;;;0.90;;
51467;SDS011;37545;45.302;-122.946;2024-02-21T07:03:58;2.75;;;1.00;;
51467;SDS011;37545;45.302;-122.946;2024-02-21T07:06:27;3.55;;;1.17;;
51467;SDS011;37545;45.302;-122.946;2024-02-21T07:08:59;1.42;;;1.02;;
51467;SDS011;37545;45.302;-122.946;2024-02-21T07:11:32;2.13;;;0.88;;
51467;SDS011;37545;45.302;-122.946;2024-02-21T07:14:00;1.80;;;0.98;;
51467;SDS011;37545;45.302;-122.946;2024-02-21T07:16:29;1.17;;;0.88;;
51467;SDS011;37545;45.302;-122.946;2024-02-21T07:18:58;1.00;;;0.80;;
51467;SDS011;37545;45.302;-122.946;2024-02-21T07:21:27;5.10;;;0.90;;
51467;SDS011;37545;45.302;-122.946;2024-02-21T07:23:57;1.27;;;0.80;;
51467;SDS011;37545;45.302;-122.946;2024-02-21T07:26:25;1.40;;;0.75;;
51467;SDS011;37545;45.302;-122.946;2024-02-21T07:28:56;1.10;;;0.80;;
51467;SDS011;37545;45.302;-122.946;2024-02-21T07:31:25;1.45;;;0.88;;
51467;SDS011;37545;45.302;-122.946;2024-02-21T07:33:55;1.60;;;0.80;;
51467;SDS011;37545;45.302;-122.946;2024-02-21T07:36:27;1.27;;;0.82;;
51467;SDS011;37545;45.302;-122.946;2024-02-21T07:38:57;3.97;;;1.05;;
51467;SDS011;37545;45.302;-122.946;2024-02-21T07:41:25;0.88;;;0.85;;
51467;SDS011;37545;45.302;-122.946;2024-02-21T07:44:01;1.40;;;0.68;;
51467;SDS011;37545;45.302;-122.946;2024-02-21T07:46:30;2.08;;;0.88;;
51467;SDS011;37545;45.302;-122.946;2024-02-21T07:49:00;1.00;;;0.82;;
51467;SDS011;37545;45.302;-122.946;2024-02-21T07:51:31;2.45;;;0.73;;
51467;SDS011;37545;45.302;-122.946;2024-02-21T07:54:01;1.05;;;0.65;;
51467;SDS011;37545;45.302;-122.946;2024-02-21T07:56:31;1.27;;;0.70;;
51467;SDS011;37545;45.302;-122.946;2024-02-21T07:59:01;2.00;;;0.90;;
51467;SDS011;37545;45.302;-122.946;2024-02-21T08:01:30;3.05;;;0.90;;
51467;SDS011;37545;45.302;-122.946;2024-02-21T08:04:01;1.20;;;0.77;;
51467;SDS011;37545;45.302;-122.946;2024-02-21T08:06:30;0.93;;;0.68;;
51467;SDS011;37545;45.302;-122.946;2024-02-21T08:08:59;1.58;;;0.93;;
51467;SDS011;37545;45.302;-122.946;2024-02-21T08:11:28;1.95;;;0.77;;
51467;SDS011;37545;45.302;-122.946;2024-02-21T08:13:59;4.03;;;1.10;;
51467;SDS011;37545;45.302;-122.946;2024-02-21T08:16:29;0.90;;;0.73;;
51467;SDS011;37545;45.302;-122.946;2024-02-21T08:18:58;2.47;;;2.15;;
51467;SDS011;37545;45.302;-122.946;2024-02-21T08:21:28;1.20;;;0.80;;
51467;SDS011;37545;45.302;-122.946;2024-02-21T08:23:57;0.77;;;0.70;;
51467;SDS011;37545;45.302;-122.946;2024-02-21T08:26:26;3.20;;;1.17;;
51467;SDS011;37545;45.302;-122.946;2024-02-21T08:28:56;1.50;;;1.08;;
51467;SDS011;37545;45.302;-122.946;2024-02-21T08:31:28;4.68;;;0.95;;
51467;SDS011;37545;45.302;-122.946;2024-02-21T08:33:58;1.17;;;0.70;;
51467;SDS011;37545;45.302;-122.946;2024-02-21T08:36:29;1.17;;;0.65;;
51467;SDS011;37545;45.302;-122.946;2024-02-21T08:38:58;0.70;;;0.63;;
51467;SDS011;37545;45.302;-122.946;2024-02-21T08:41:30;2.67;;;0.63;;
51467;SDS011;37545;45.302;-122.946;2024-02-21T08:43:59;1.05;;;0.95;;
51467;SDS011;37545;45.302;-122.946;2024-02-21T08:46:34;1.30;;;1.00;;
51467;SDS011;37545;45.302;-122.946;2024-02-21T08:49:05;2.95;;;0.82;;
51467;SDS011;37545;45.302;-122.946;2024-02-21T08:51:34;2.70;;;0.90;;
51467;SDS011;37545;45.302;-122.946;2024-02-21T08:54:03;2.50;;;0.77;;
51467;SDS011;37545;45.302;-122.946;2024-02-21T08:56:33;0.75;;;0.55;;
51467;SDS011;37545;45.302;-122.946;2024-02-21T08:59:02;1.00;;;0.52;;
51467;SDS011;37545;45.302;-122.946;2024-02-21T09:01:31;2.35;;;0.82;;
51467;SDS011;37545;45.302;-122.946;2024-02-21T09:04:02;1.58;;;0.70;;
51467;SDS011;37545;45.302;-122.946;2024-02-21T09:06:32;4.33;;;0.67;;
51467;SDS011;37545;45.302;-122.946;2024-02-21T09:09:03;1.55;;;0.77;;
51467;SDS011;37545;45.302;-122.946;2024-02-21T09:11:33;3.42;;;0.68;;
51467;SDS011;37545;45.302;-122.946;2024-02-21T09:14:02;3.00;;;0.70;;
51467;SDS011;37545;45.302;-122.946;2024-02-21T09:16:31;1.10;;;0.45;;
51467;SDS011;37545;45.302;-122.946;2024-02-21T09:19:02;1.15;;;0.45;;
51467;SDS011;37545;45.302;-122.946;2024-02-21T09:21:31;1.45;;;0.43;;
51467;SDS011;37545;45.302;-122.946;2024-02-21T09:23:59;1.45;;;0.70;;
51467;SDS011;37545;45.302;-122.946;2024-02-21T09:26:28;4.68;;;0.70;;
51467;SDS011;37545;45.302;-122.946;2024-02-21T09:28:59;1.60;;;0.98;;
51467;SDS011;37545;45.302;-122.946;2024-02-21T09:31:29;0.57;;;0.35;;
51467;SDS011;37545;45.302;-122.946;2024-02-21T09:33:58;3.85;;;0.45;;
51467;SDS011;37545;45.302;-122.946;2024-02-21T09:36:28;0.95;;;0.50;;
51467;SDS011;37545;45.302;-122.946;2024-02-21T09:38:57;1.50;;;0.70;;
51467;SDS011;37545;45.302;-122.946;2024-02-21T09:41:28;1.80;;;0.60;;
51467;SDS011;37545;45.302;-122.946;2024-02-21T09:43:57;0.80;;;0.55;;
51467;SDS011;37545;45.302;-122.946;2024-02-21T09:46:30;0.47;;;0.30;;
51467;SDS011;37545;45.302;-122.946;2024-02-21T09:49:13;3.30;;;0.60;;
51467;SDS011;37545;45.302;-122.946;2024-02-21T09:51:53;1.35;;;0.47;;
51467;SDS011;37545;45.302;-122.946;2024-02-21T09:54:32;2.38;;;0.90;;
51467;SDS011;37545;45.302;-122.946;2024-02-21T09:57:01;1.05;;;0.47;;
51467;SDS011;37545;45.302;-122.946;2024-02-21T09:59:32;2.13;;;0.75;;
51467;SDS011;37545;45.302;-122.946;2024-02-21T10:02:05;0.90;;;0.60;;
51467;SDS011;37545;45.302;-122.946;2024-02-21T10:04:34;2.15;;;0.65;;
51467;SDS011;37545;45.302;-122.946;2024-02-21T10:07:04;1.15;;;0.45;;
51467;SDS011;37545;45.302;-122.946;2024-02-21T10:09:33;1.15;;;0.60;;
51467;SDS011;37545;45.302;-122.946;2024-02-21T10:12:08;0.45;;;0.30;;
51467;SDS011;37545;45.302;-122.946;2024-02-21T10:14:37;1.25;;;0.50;;
51467;SDS011;37545;45.302;-122.946;2024-02-21T10:17:06;0.70;;;0.32;;
51467;SDS011;37545;45.302;-122.946;2024-02-21T10:19:36;0.85;;;0.40;;
51467;SDS011;37545;45.302;-122.946;2024-02-21T10:22:14;1.15;;;0.40;;
51467;SDS011;37545;45.302;-122.946;2024-02-21T10:24:46;0.77;;;0.40;;
51467;SDS011;37545;45.302;-122.946;2024-02-21T10:27:15;0.30;;;0.20;;
51467;SDS011;37545;45.302;-122.946;2024-02-21T10:29:48;3.97;;;0.70;;
51467;SDS011;37545;45.302;-122.946;2024-02-21T10:32:18;0.52;;;0.20;;
51467;SDS011;37545;45.302;-122.946;2024-02-21T10:34:48;1.02;;;0.40;;
51467;SDS011;37545;45.302;-122.946;2024-02-21T10:37:19;0.75;;;0.57;;
51467;SDS011;37545;45.302;-122.946;2024-02-21T10:39:50;1.52;;;0.40;;
51467;SDS011;37545;45.302;-122.946;2024-02-21T10:42:20;1.85;;;0.35;;
51467;SDS011;37545;45.302;-122.946;2024-02-21T10:44:50;0.82;;;0.38;;
51467;SDS011;37545;45.302;-122.946;2024-02-21T10:47:19;0.55;;;0.30;;
51467;SDS011;37545;45.302;-122.946;2024-02-21T10:49:55;0.50;;;0.32;;
51467;SDS011;37545;45.302;-122.946;2024-02-21T10:52:32;1.90;;;0.55;;
51467;SDS011;37545;45.302;-122.946;2024-02-21T10:55:14;0.90;;;0.40;;
51467;SDS011;37545;45.302;-122.946;2024-02-21T10:57:49;0.50;;;0.30;;
51467;SDS011;37545;45.302;-122.946;2024-02-21T11:00:19;0.52;;;0.30;;
51467;SDS011;37545;45.302;-122.946;2024-02-21T11:02:55;0.47;;;0.22;;
51467;SDS011;37545;45.302;-122.946;2024-02-21T11:05:24;0.82;;;0.40;;
51467;SDS011;37545;45.302;-122.946;2024-02-21T11:07:56;1.00;;;0.40;;
51467;SDS011;37545;45.302;-122.946;2024-02-21T11:10:25;0.28;;;0.20;;
51467;SDS011;37545;45.302;-122.946;2024-02-21T11:13:04;4.32;;;0.68;;
51467;SDS011;37545;45.302;-122.946;2024-02-21T11:15:34;1.35;;;0.35;;
51467;SDS011;37545;45.302;-122.946;2024-02-21T11:18:06;0.40;;;0.28;;
51467;SDS011;37545;45.302;-122.946;2024-02-21T11:20:49;0.43;;;0.20;;
51467;SDS011;37545;45.302;-122.946;2024-02-21T11:23:26;0.30;;;0.20;;
51467;SDS011;37545;45.302;-122.946;2024-02-21T11:26:03;0.28;;;0.28;;
51467;SDS011;37545;45.302;-122.946;2024-02-21T11:28:33;0.65;;;0.40;;
51467;SDS011;37545;45.302;-122.946;2024-02-21T11:31:11;1.73;;;0.70;;
51467;SDS011;37545;45.302;-122.946;2024-02-21T11:33:41;1.33;;;0.55;;
51467;SDS011;37545;45.302;-122.946;2024-02-21T11:36:10;0.25;;;0.20;;
51467;SDS011;37545;45.302;-122.946;2024-02-21T11:38:55;0.60;;;0.40;;
51467;SDS011;37545;45.302;-122.946;2024-02-21T11:41:32;0.30;;;0.30;;
51467;SDS011;37545;45.302;-122.946;2024-02-21T11:44:00;1.30;;;0.30;;
51467;SDS011;37545;45.302;-122.946;2024-02-21T11:46:31;0.95;;;0.30;;
51467;SDS011;37545;45.302;-122.946;2024-02-21T11:49:02;0.50;;;0.20;;
51467;SDS011;37545;45.302;-122.946;2024-02-21T11:51:31;2.83;;;0.60;;
51467;SDS011;37545;45.302;-122.946;2024-02-21T11:54:01;1.20;;;0.47;;
51467;SDS011;37545;45.302;-122.946;2024-02-21T11:56:30;0.40;;;0.35;;
51467;SDS011;37545;45.302;-122.946;2024-02-21T11:59:02;3.40;;;0.40;;
51467;SDS011;37545;45.302;-122.946;2024-02-21T12:01:32;0.68;;;0.40;;
51467;SDS011;37545;45.302;-122.946;2024-02-21T12:04:01;0.43;;;0.30;;
51467;SDS011;37545;45.302;-122.946;2024-02-21T12:06:32;0.20;;;0.10;;
51467;SDS011;37545;45.302;-122.946;2024-02-21T12:09:08;0.57;;;0.10;;
51467;SDS011;37545;45.302;-122.946;2024-02-21T12:11:36;0.28;;;0.17;;
51467;SDS011;37545;45.302;-122.946;2024-02-21T12:14:05;0.40;;;0.28;;
51467;SDS011;37545;45.302;-122.946;2024-02-21T12:16:35;1.13;;;0.30;;
51467;SDS011;37545;45.302;-122.946;2024-02-21T12:19:10;0.30;;;0.20;;
51467;SDS011;37545;45.302;-122.946;2024-02-21T12:21:39;0.15;;;0.10;;
51467;SDS011;37545;45.302;-122.946;2024-02-21T12:24:17;0.63;;;0.32;;
51467;SDS011;37545;45.302;-122.946;2024-02-21T12:26:49;1.13;;;0.20;;
51467;SDS011;37545;45.302;-122.946;2024-02-21T12:29:18;0.20;;;0.20;;
51467;SDS011;37545;45.302;-122.946;2024-02-21T12:31:46;0.40;;;0.28;;
51467;SDS011;37545;45.302;-122.946;2024-02-21T12:34:15;0.95;;;0.40;;
51467;SDS011;37545;45.302;-122.946;2024-02-21T12:36:44;0.10;;;0.10;;
51467;SDS011;37545;45.302;-122.946;2024-02-21T12:39:14;2.35;;;0.30;;
51467;SDS011;37545;45.302;-122.946;2024-02-21T12:41:44;0.15;;;0.10;;
51467;SDS011;37545;45.302;-122.946;2024-02-21T12:44:13;0.70;;;0.32;;
51467;SDS011;37545;45.302;-122.946;2024-02-21T12:46:42;0.45;;;0.20;;
51467;SDS011;37545;45.302;-122.946;2024-02-21T12:49:15;0.30;;;0.10;;
51467;SDS011;37545;45.302;-122.946;2024-02-21T12:51:44;2.92;;;0.30;;
51467;SDS011;37545;45.302;-122.946;2024-02-21T12:54:13;0.22;;;0.10;;
51467;SDS011;37545;45.302;-122.946;2024-02-21T12:59:17;2.83;;;0.30;;
51467;SDS011;37545;45.302;-122.946;2024-02-21T13:01:46;0.45;;;0.20;;
51467;SDS011;37545;45.302;-122.946;2024-02-21T13:04:15;0.15;;;0.13;;
51467;SDS011;37545;45.302;-122.946;2024-02-21T13:06:44;0.10;;;0.10;;
51467;SDS011;37545;45.302;-122.946;2024-02-21T13:09:19;0.77;;;0.25;;
51467;SDS011;37545;45.302;-122.946;2024-02-21T13:11:48;0.65;;;0.40;;
51467;SDS011;37545;45.302;-122.946;2024-02-21T13:14:17;0.08;;;0.08;;
51467;SDS011;37545;45.302;-122.946;2024-02-21T13:16:48;0.82;;;0.35;;
51467;SDS011;37545;45.302;-122.946;2024-02-21T13:19:19;0.08;;;0.00;;
51467;SDS011;37545;45.302;-122.946;2024-02-21T13:21:48;0.40;;;0.00;;
51467;SDS011;37545;45.302;-122.946;2024-02-21T13:24:16;0.10;;;0.10;;
51467;SDS011;37545;45.302;-122.946;2024-02-21T13:26:47;1.27;;;0.25;;
51467;SDS011;37545;45.302;-122.946;2024-02-21T13:29:16;1.48;;;0.20;;
51467;SDS011;37545;45.302;-122.946;2024-02-21T13:31:46;2.38;;;0.52;;
51467;SDS011;37545;45.302;-122.946;2024-02-21T13:34:15;0.52;;;0.22;;
51467;SDS011;37545;45.302;-122.946;2024-02-21T13:36:45;0.10;;;0.10;;
51467;SDS011;37545;45.302;-122.946;2024-02-21T13:39:14;1.17;;;0.20;;
51467;SDS011;37545;45.302;-122.946;2024-02-21T13:41:46;0.20;;;0.10;;
51467;SDS011;37545;45.302;-122.946;2024-02-21T13:44:15;0.43;;;0.10;;
51467;SDS011;37545;45.302;-122.946;2024-02-21T13:46:44;0.28;;;0.10;;
51467;SDS011;37545;45.302;-122.946;2024-02-21T13:49:13;0.05;;;0.05;;
51467;SDS011;37545;45.302;-122.946;2024-02-21T13:51:45;0.60;;;0.30;;
51467;SDS011;37545;45.302;-122.946;2024-02-21T13:54:13;0.00;;;0.00;;
51467;SDS011;37545;45.302;-122.946;2024-02-21T13:56:46;0.20;;;0.03;;
51467;SDS011;37545;45.302;-122.946;2024-02-21T13:59:17;0.10;;;0.10;;
51467;SDS011;37545;45.302;-122.946;2024-02-21T14:01:48;0.45;;;0.20;;
51467;SDS011;37545;45.302;-122.946;2024-02-21T14:04:17;0.05;;;0.00;;
51467;SDS011;37545;45.302;-122.946;2024-02-21T14:06:46;0.05;;;0.05;;
51467;SDS011;37545;45.302;-122.946;2024-02-21T14:09:14;0.30;;;0.28;;
51467;SDS011;37545;45.302;-122.946;2024-02-21T14:11:49;0.85;;;0.10;;
51467;SDS011;37545;45.302;-122.946;2024-02-21T14:14:17;0.10;;;0.10;;
51467;SDS011;37545;45.302;-122.946;2024-02-21T14:16:46;0.20;;;0.10;;
51467;SDS011;37545;45.302;-122.946;2024-02-21T14:19:15;0.25;;;0.10;;
51467;SDS011;37545;45.302;-122.946;2024-02-21T14:21:49;3.60;;;0.15;;
51467;SDS011;37545;45.302;-122.946;2024-02-21T14:24:18;0.10;;;0.10;;
51467;SDS011;37545;45.302;-122.946;2024-02-21T14:26:47;0.52;;;0.20;;
51467;SDS011;37545;45.302;-122.946;2024-02-21T14:29:17;2.20;;;0.30;;
51467;SDS011;37545;45.302;-122.946;2024-02-21T14:31:46;0.75;;;0.22;;
51467;SDS011;37545;45.302;-122.946;2024-02-21T14:34:15;0.10;;;0.10;;
51467;SDS011;37545;45.302;-122.946;2024-02-21T14:36:44;0.98;;;0.35;;
51467;SDS011;37545;45.302;-122.946;2024-02-21T14:39:14;0.85;;;0.13;;
51467;SDS011;37545;45.302;-122.946;2024-02-21T14:41:43;0.15;;;0.13;;
51467;SDS011;37545;45.302;-122.946;2024-02-21T14:44:13;0.28;;;0.10;;
51467;SDS011;37545;45.302;-122.946;2024-02-21T14:46:42;0.30;;;0.20;;
51467;SDS011;37545;45.302;-122.946;2024-02-21T14:49:11;0.95;;;0.20;;
51467;SDS011;37545;45.302;-122.946;2024-02-21T14:51:40;0.32;;;0.08;;
51467;SDS011;37545;45.302;-122.946;2024-02-21T14:54:08;0.40;;;0.20;;
51467;SDS011;37545;45.302;-122.946;2024-02-21T14:56:40;0.45;;;0.20;;
51467;SDS011;37545;45.302;-122.946;2024-02-21T14:59:09;0.40;;;0.10;;
51467;SDS011;37545;45.302;-122.946;2024-02-21T15:01:39;0.20;;;0.17;;
51467;SDS011;37545;45.302;-122.946;2024-02-21T15:04:08;0.35;;;0.10;;
51467;SDS011;37545;45.302;-122.946;2024-02-21T15:06:37;0.55;;;0.20;;
51467;SDS011;37545;45.302;-122.946;2024-02-21T15:09:05;2.03;;;0.20;;
51467;SDS011;37545;45.302;-122.946;2024-02-21T15:11:34;0.57;;;0.08;;
51467;SDS011;37545;45.302;-122.946;2024-02-21T15:14:03;0.68;;;0.28;;
51467;SDS011;37545;45.302;-122.946;2024-02-21T15:16:31;1.98;;;0.30;;